sensor_id;sensor_type;location;lat;lon;timestamp;temperature;humidity
16158;DHT22;8184;60.256;18.694;2022-12-15T00:02:08;-9.50;99.90
16158;DHT22;8184;60.256;18.694;2022-12-15T00:04:53;-9.60;99.90
16158;DHT22;8184;60.256;18.694;2022-12-15T00:07:39;-9.70;99.90
16158;DHT22;8184;60.256;18.694;2022-12-15T00:10:25;-9.70;99.90
16158;DHT22;8184;60.256;18.694;2022-12-15T00:13:10;-9.70;99.90
16158;DHT22;8184;60.256;18.694;2022-12-15T00:15:57;-9.70;99.90
16158;DHT22;8184;60.256;18.694;2022-12-15T00:18:44;-9.60;99.90
16158;DHT22;8184;60.256;18.694;2022-12-15T00:21:30;-9.70;99.90
16158;DHT22;8184;60.256;18.694;2022-12-15T00:24:16;-9.80;99.90
16158;DHT22;8184;60.256;18.694;2022-12-15T00:27:02;-9.90;99.90
16158;DHT22;8184;60.256;18.694;2022-12-15T00:29:47;-9.90;99.90
16158;DHT22;8184;60.256;18.694;2022-12-15T00:32:33;-10.10;99.90
16158;DHT22;8184;60.256;18.694;2022-12-15T00:35:20;-10.10;99.90
16158;DHT22;8184;60.256;18.694;2022-12-15T00:38:06;-10.10;99.90
16158;DHT22;8184;60.256;18.694;2022-12-15T00:40:52;-10.10;99.90
16158;DHT22;8184;60.256;18.694;2022-12-15T00:43:25;-10.20;99.90
16158;DHT22;8184;60.256;18.694;2022-12-15T00:45:53;-10.20;99.90
16158;DHT22;8184;60.256;18.694;2022-12-15T00:48:39;-10.40;99.90
16158;DHT22;8184;60.256;18.694;2022-12-15T00:51:09;-10.20;99.90
16158;DHT22;8184;60.256;18.694;2022-12-15T00:53:37;-10.00;99.90
16158;DHT22;8184;60.256;18.694;2022-12-15T00:56:22;-9.90;99.90
16158;DHT22;8184;60.256;18.694;2022-12-15T00:59:08;-9.90;99.90
16158;DHT22;8184;60.256;18.694;2022-12-15T01:01:54;-10.00;99.90
16158;DHT22;8184;60.256;18.694;2022-12-15T01:04:40;-10.00;99.90
16158;DHT22;8184;60.256;18.694;2022-12-15T01:07:27;-10.00;99.90
16158;DHT22;8184;60.256;18.694;2022-12-15T01:10:16;-10.00;99.90
16158;DHT22;8184;60.256;18.694;2022-12-15T01:13:04;-10.00;99.90
16158;DHT22;8184;60.256;18.694;2022-12-15T01:15:50;-10.10;99.90
16158;DHT22;8184;60.256;18.694;2022-12-15T01:18:36;-10.10;99.90
16158;DHT22;8184;60.256;18.694;2022-12-15T01:21:21;-10.10;99.90
16158;DHT22;8184;60.256;18.694;2022-12-15T01:23:52;-10.20;99.90
16158;DHT22;8184;60.256;18.694;2022-12-15T01:26:20;-10.20;99.90
16158;DHT22;8184;60.256;18.694;2022-12-15T01:28:49;-10.10;99.90
16158;DHT22;8184;60.256;18.694;2022-12-15T01:31:17;-10.10;99.90
16158;DHT22;8184;60.256;18.694;2022-12-15T01:33:45;-10.10;99.90
16158;DHT22;8184;60.256;18.694;2022-12-15T01:36:13;-10.20;99.90
16158;DHT22;8184;60.256;18.694;2022-12-15T01:38:42;-10.20;99.90
16158;DHT22;8184;60.256;18.694;2022-12-15T01:41:19;-10.20;99.90
16158;DHT22;8184;60.256;18.694;2022-12-15T01:43:46;-10.20;99.90
16158;DHT22;8184;60.256;18.694;2022-12-15T01:46:15;-10.30;99.90
16158;DHT22;8184;60.256;18.694;2022-12-15T01:48:46;-10.30;99.90
16158;DHT22;8184;60.256;18.694;2022-12-15T01:51:17;-10.30;99.90
16158;DHT22;8184;60.256;18.694;2022-12-15T01:53:47;-10.40;99.90
16158;DHT22;8184;60.256;18.694;2022-12-15T01:56:19;-10.40;99.90
16158;DHT22;8184;60.256;18.694;2022-12-15T01:58:48;-10.40;99.90
16158;DHT22;8184;60.256;18.694;2022-12-15T02:01:18;-10.40;99.90
16158;DHT22;8184;60.256;18.694;2022-12-15T02:03:46;-10.50;99.90
16158;DHT22;8184;60.256;18.694;2022-12-15T02:06:14;-10.50;99.90
16158;DHT22;8184;60.256;18.694;2022-12-15T02:08:46;-10.50;99.90
16158;DHT22;8184;60.256;18.694;2022-12-15T02:14:03;-10.50;99.90
16158;DHT22;8184;60.256;18.694;2022-12-15T02:16:36;-10.50;99.90
16158;DHT22;8184;60.256;18.694;2022-12-15T02:19:10;-10.50;99.90
16158;DHT22;8184;60.256;18.694;2022-12-15T02:21:46;-10.60;99.90
16158;DHT22;8184;60.256;18.694;2022-12-15T02:24:29;-10.60;99.90
16158;DHT22;8184;60.256;18.694;2022-12-15T02:27:11;-10.50;99.90
16158;DHT22;8184;60.256;18.694;2022-12-15T02:29:50;-10.40;99.90
16158;DHT22;8184;60.256;18.694;2022-12-15T02:32:26;-10.50;99.90
16158;DHT22;8184;60.256;18.694;2022-12-15T02:34:59;-10.60;99.90
16158;DHT22;8184;60.256;18.694;2022-12-15T02:37:29;-10.60;99.90
16158;DHT22;8184;60.256;18.694;2022-12-15T02:39:59;-10.60;99.90
16158;DHT22;8184;60.256;18.694;2022-12-15T02:42:27;-10.60;99.90
16158;DHT22;8184;60.256;18.694;2022-12-15T02:44:58;-10.70;99.90
16158;DHT22;8184;60.256;18.694;2022-12-15T02:47:30;-10.70;99.90
16158;DHT22;8184;60.256;18.694;2022-12-15T02:52:50;-10.70;99.90
16158;DHT22;8184;60.256;18.694;2022-12-15T02:55:22;-10.70;99.90
16158;DHT22;8184;60.256;18.694;2022-12-15T02:57:52;-10.60;99.90
16158;DHT22;8184;60.256;18.694;2022-12-15T03:00:22;-10.60;99.90
16158;DHT22;8184;60.256;18.694;2022-12-15T03:02:52;-10.60;99.90
16158;DHT22;8184;60.256;18.694;2022-12-15T03:05:21;-10.70;99.90
16158;DHT22;8184;60.256;18.694;2022-12-15T03:07:52;-10.70;99.90
16158;DHT22;8184;60.256;18.694;2022-12-15T03:10:21;-10.60;99.90
16158;DHT22;8184;60.256;18.694;2022-12-15T03:12:50;-10.70;99.90
16158;DHT22;8184;60.256;18.694;2022-12-15T03:15:20;-10.60;99.90
16158;DHT22;8184;60.256;18.694;2022-12-15T03:17:48;-10.70;99.90
16158;DHT22;8184;60.256;18.694;2022-12-15T03:20:19;-10.70;99.90
16158;DHT22;8184;60.256;18.694;2022-12-15T03:22:47;-10.60;99.90
16158;DHT22;8184;60.256;18.694;2022-12-15T03:25:15;-10.50;99.90
16158;DHT22;8184;60.256;18.694;2022-12-15T03:27:44;-10.50;99.90
16158;DHT22;8184;60.256;18.694;2022-12-15T03:30:13;-10.50;99.90
16158;DHT22;8184;60.256;18.694;2022-12-15T03:32:41;-10.40;99.90
16158;DHT22;8184;60.256;18.694;2022-12-15T03:35:09;-10.40;99.90
16158;DHT22;8184;60.256;18.694;2022-12-15T03:37:40;-10.40;99.90
16158;DHT22;8184;60.256;18.694;2022-12-15T03:40:09;-10.30;99.90
16158;DHT22;8184;60.256;18.694;2022-12-15T03:42:42;-10.30;99.90
16158;DHT22;8184;60.256;18.694;2022-12-15T03:45:16;-10.30;99.90
16158;DHT22;8184;60.256;18.694;2022-12-15T03:47:45;-10.30;99.90
16158;DHT22;8184;60.256;18.694;2022-12-15T03:50:14;-10.30;99.90
16158;DHT22;8184;60.256;18.694;2022-12-15T03:52:44;-10.30;99.90
16158;DHT22;8184;60.256;18.694;2022-12-15T03:55:12;-10.30;99.90
16158;DHT22;8184;60.256;18.694;2022-12-15T03:57:41;-10.40;99.90
16158;DHT22;8184;60.256;18.694;2022-12-15T04:00:11;-10.40;99.90
16158;DHT22;8184;60.256;18.694;2022-12-15T04:02:41;-10.50;99.90
16158;DHT22;8184;60.256;18.694;2022-12-15T04:05:11;-10.50;99.90
16158;DHT22;8184;60.256;18.694;2022-12-15T04:07:40;-10.50;99.90
16158;DHT22;8184;60.256;18.694;2022-12-15T04:10:10;-10.50;99.90
16158;DHT22;8184;60.256;18.694;2022-12-15T04:12:39;-10.60;99.90
16158;DHT22;8184;60.256;18.694;2022-12-15T04:15:07;-10.60;99.90
16158;DHT22;8184;60.256;18.694;2022-12-15T04:17:36;-10.70;99.90
16158;DHT22;8184;60.256;18.694;2022-12-15T04:20:04;-10.60;99.90
16158;DHT22;8184;60.256;18.694;2022-12-15T04:22:37;-10.70;99.90
16158;DHT22;8184;60.256;18.694;2022-12-15T04:25:06;-10.70;99.90
16158;DHT22;8184;60.256;18.694;2022-12-15T04:27:53;-10.70;99.90
16158;DHT22;8184;60.256;18.694;2022-12-15T04:30:39;-10.70;99.90
16158;DHT22;8184;60.256;18.694;2022-12-15T04:33:26;-10.70;99.90
16158;DHT22;8184;60.256;18.694;2022-12-15T04:36:11;-10.80;99.90
16158;DHT22;8184;60.256;18.694;2022-12-15T04:38:57;-10.80;99.90
16158;DHT22;8184;60.256;18.694;2022-12-15T04:41:43;-10.80;99.90
16158;DHT22;8184;60.256;18.694;2022-12-15T04:44:30;-10.80;99.90
16158;DHT22;8184;60.256;18.694;2022-12-15T04:47:16;-10.90;99.90
16158;DHT22;8184;60.256;18.694;2022-12-15T04:50:02;-10.80;99.90
16158;DHT22;8184;60.256;18.694;2022-12-15T04:52:47;-10.70;99.90
16158;DHT22;8184;60.256;18.694;2022-12-15T04:55:33;-10.80;99.90
16158;DHT22;8184;60.256;18.694;2022-12-15T04:58:19;-10.80;99.90
16158;DHT22;8184;60.256;18.694;2022-12-15T05:01:06;-10.80;99.90
16158;DHT22;8184;60.256;18.694;2022-12-15T05:03:52;-10.80;99.90
16158;DHT22;8184;60.256;18.694;2022-12-15T05:06:37;-10.70;99.90
16158;DHT22;8184;60.256;18.694;2022-12-15T05:09:23;-10.80;99.90
16158;DHT22;8184;60.256;18.694;2022-12-15T05:12:09;-10.90;99.90
16158;DHT22;8184;60.256;18.694;2022-12-15T05:14:54;-10.90;99.90
16158;DHT22;8184;60.256;18.694;2022-12-15T05:17:42;-11.00;99.90
16158;DHT22;8184;60.256;18.694;2022-12-15T05:20:27;-11.00;99.90
16158;DHT22;8184;60.256;18.694;2022-12-15T05:23:15;-11.00;99.90
16158;DHT22;8184;60.256;18.694;2022-12-15T05:26:01;-11.00;99.90
16158;DHT22;8184;60.256;18.694;2022-12-15T05:28:47;-11.00;99.90
16158;DHT22;8184;60.256;18.694;2022-12-15T05:31:33;-10.90;99.90
16158;DHT22;8184;60.256;18.694;2022-12-15T05:34:23;-10.90;99.90
16158;DHT22;8184;60.256;18.694;2022-12-15T05:36:51;-11.00;99.90
16158;DHT22;8184;60.256;18.694;2022-12-15T05:39:20;-11.00;99.90
16158;DHT22;8184;60.256;18.694;2022-12-15T05:41:49;-10.90;99.90
16158;DHT22;8184;60.256;18.694;2022-12-15T05:44:17;-10.90;99.90
16158;DHT22;8184;60.256;18.694;2022-12-15T05:46:46;-10.90;99.90
16158;DHT22;8184;60.256;18.694;2022-12-15T05:49:15;-10.90;99.90
16158;DHT22;8184;60.256;18.694;2022-12-15T05:51:45;-10.80;99.90
16158;DHT22;8184;60.256;18.694;2022-12-15T05:54:15;-10.80;99.90
16158;DHT22;8184;60.256;18.694;2022-12-15T05:56:43;-10.80;99.90
16158;DHT22;8184;60.256;18.694;2022-12-15T05:59:15;-10.80;99.90
16158;DHT22;8184;60.256;18.694;2022-12-15T06:01:44;-10.90;99.90
16158;DHT22;8184;60.256;18.694;2022-12-15T06:04:13;-10.90;99.90
16158;DHT22;8184;60.256;18.694;2022-12-15T06:06:42;-10.90;99.90
16158;DHT22;8184;60.256;18.694;2022-12-15T06:09:14;-10.90;99.90
16158;DHT22;8184;60.256;18.694;2022-12-15T06:11:42;-10.90;99.90
16158;DHT22;8184;60.256;18.694;2022-12-15T06:14:11;-10.80;99.90
16158;DHT22;8184;60.256;18.694;2022-12-15T06:16:39;-10.80;99.90
16158;DHT22;8184;60.256;18.694;2022-12-15T06:19:16;-10.80;99.90
16158;DHT22;8184;60.256;18.694;2022-12-15T06:21:45;-10.80;99.90
16158;DHT22;8184;60.256;18.694;2022-12-15T06:24:15;-10.80;99.90
16158;DHT22;8184;60.256;18.694;2022-12-15T06:26:43;-10.80;99.90
16158;DHT22;8184;60.256;18.694;2022-12-15T06:29:15;-10.80;99.90
16158;DHT22;8184;60.256;18.694;2022-12-15T06:31:45;-10.80;99.90
16158;DHT22;8184;60.256;18.694;2022-12-15T06:34:14;-10.80;99.90
16158;DHT22;8184;60.256;18.694;2022-12-15T06:36:43;-10.80;99.90
16158;DHT22;8184;60.256;18.694;2022-12-15T06:39:15;-10.80;99.90
16158;DHT22;8184;60.256;18.694;2022-12-15T06:41:44;-10.70;99.90
16158;DHT22;8184;60.256;18.694;2022-12-15T06:44:12;-10.70;99.90
16158;DHT22;8184;60.256;18.694;2022-12-15T06:46:43;-10.70;99.90
16158;DHT22;8184;60.256;18.694;2022-12-15T06:49:13;-10.70;99.90
16158;DHT22;8184;60.256;18.694;2022-12-15T06:51:41;-10.70;99.90
16158;DHT22;8184;60.256;18.694;2022-12-15T06:54:10;-10.60;99.90
16158;DHT22;8184;60.256;18.694;2022-12-15T06:56:40;-10.60;99.90
16158;DHT22;8184;60.256;18.694;2022-12-15T06:59:09;-10.60;99.90
16158;DHT22;8184;60.256;18.694;2022-12-15T07:01:37;-10.50;99.90
16158;DHT22;8184;60.256;18.694;2022-12-15T07:04:07;-10.60;99.90
16158;DHT22;8184;60.256;18.694;2022-12-15T07:06:37;-10.50;99.90
16158;DHT22;8184;60.256;18.694;2022-12-15T07:09:06;-10.50;99.90
16158;DHT22;8184;60.256;18.694;2022-12-15T07:11:36;-10.50;99.90
16158;DHT22;8184;60.256;18.694;2022-12-15T07:14:05;-10.50;99.90
16158;DHT22;8184;60.256;18.694;2022-12-15T07:16:33;-10.60;99.90
16158;DHT22;8184;60.256;18.694;2022-12-15T07:19:02;-10.60;99.90
16158;DHT22;8184;60.256;18.694;2022-12-15T07:21:30;-10.60;99.90
16158;DHT22;8184;60.256;18.694;2022-12-15T07:23:59;-10.60;99.90
16158;DHT22;8184;60.256;18.694;2022-12-15T07:26:28;-10.60;99.90
16158;DHT22;8184;60.256;18.694;2022-12-15T07:28:56;-10.70;99.90
16158;DHT22;8184;60.256;18.694;2022-12-15T07:31:26;-10.70;99.90
16158;DHT22;8184;60.256;18.694;2022-12-15T07:33:55;-10.70;99.90
16158;DHT22;8184;60.256;18.694;2022-12-15T07:36:24;-10.70;99.90
16158;DHT22;8184;60.256;18.694;2022-12-15T07:38:56;-10.70;99.90
16158;DHT22;8184;60.256;18.694;2022-12-15T07:41:24;-10.70;99.90
16158;DHT22;8184;60.256;18.694;2022-12-15T07:43:52;-10.80;99.90
16158;DHT22;8184;60.256;18.694;2022-12-15T07:46:21;-10.80;99.90
16158;DHT22;8184;60.256;18.694;2022-12-15T07:48:51;-10.80;99.90
16158;DHT22;8184;60.256;18.694;2022-12-15T07:51:20;-10.80;99.90
16158;DHT22;8184;60.256;18.694;2022-12-15T07:53:49;-10.80;99.90
16158;DHT22;8184;60.256;18.694;2022-12-15T07:56:18;-10.80;99.90
16158;DHT22;8184;60.256;18.694;2022-12-15T07:58:46;-10.80;99.90
16158;DHT22;8184;60.256;18.694;2022-12-15T08:01:14;-10.80;99.90
16158;DHT22;8184;60.256;18.694;2022-12-15T08:03:42;-10.90;99.90
16158;DHT22;8184;60.256;18.694;2022-12-15T08:06:13;-11.00;99.90
16158;DHT22;8184;60.256;18.694;2022-12-15T08:08:42;-10.90;99.90
16158;DHT22;8184;60.256;18.694;2022-12-15T08:11:17;-10.90;99.90
16158;DHT22;8184;60.256;18.694;2022-12-15T08:13:46;-10.90;99.90
16158;DHT22;8184;60.256;18.694;2022-12-15T08:16:28;-11.00;99.90
16158;DHT22;8184;60.256;18.694;2022-12-15T08:19:00;-11.00;99.90
16158;DHT22;8184;60.256;18.694;2022-12-15T08:21:30;-11.00;99.90
16158;DHT22;8184;60.256;18.694;2022-12-15T08:23:58;-11.00;99.90
16158;DHT22;8184;60.256;18.694;2022-12-15T08:26:30;-11.00;99.90
16158;DHT22;8184;60.256;18.694;2022-12-15T08:28:59;-11.00;99.90
16158;DHT22;8184;60.256;18.694;2022-12-15T08:31:50;-11.10;99.90
16158;DHT22;8184;60.256;18.694;2022-12-15T08:34:19;-11.10;99.90
16158;DHT22;8184;60.256;18.694;2022-12-15T08:36:48;-11.00;99.90
16158;DHT22;8184;60.256;18.694;2022-12-15T08:39:16;-11.10;99.90
16158;DHT22;8184;60.256;18.694;2022-12-15T08:41:44;-11.10;99.90
16158;DHT22;8184;60.256;18.694;2022-12-15T08:44:13;-11.10;99.90
16158;DHT22;8184;60.256;18.694;2022-12-15T08:46:42;-11.00;99.90
16158;DHT22;8184;60.256;18.694;2022-12-15T08:49:11;-11.10;99.90
16158;DHT22;8184;60.256;18.694;2022-12-15T08:51:48;-11.10;99.90
16158;DHT22;8184;60.256;18.694;2022-12-15T08:54:18;-11.10;99.90
16158;DHT22;8184;60.256;18.694;2022-12-15T08:56:48;-11.20;99.90
16158;DHT22;8184;60.256;18.694;2022-12-15T08:59:17;-11.20;99.90
16158;DHT22;8184;60.256;18.694;2022-12-15T09:01:45;-11.30;99.90
16158;DHT22;8184;60.256;18.694;2022-12-15T09:04:14;-11.30;99.90
16158;DHT22;8184;60.256;18.694;2022-12-15T09:06:43;-11.30;99.90
16158;DHT22;8184;60.256;18.694;2022-12-15T09:09:18;-11.30;99.90
16158;DHT22;8184;60.256;18.694;2022-12-15T09:11:46;-11.20;99.90
16158;DHT22;8184;60.256;18.694;2022-12-15T09:14:15;-11.20;99.90
16158;DHT22;8184;60.256;18.694;2022-12-15T09:16:43;-11.20;99.90
16158;DHT22;8184;60.256;18.694;2022-12-15T09:19:16;-11.10;99.90
16158;DHT22;8184;60.256;18.694;2022-12-15T09:21:44;-11.10;99.90
16158;DHT22;8184;60.256;18.694;2022-12-15T09:24:14;-11.10;99.90
16158;DHT22;8184;60.256;18.694;2022-12-15T09:26:59;-11.10;99.90
16158;DHT22;8184;60.256;18.694;2022-12-15T09:29:29;-11.10;99.90
16158;DHT22;8184;60.256;18.694;2022-12-15T09:31:57;-11.10;99.90
16158;DHT22;8184;60.256;18.694;2022-12-15T09:34:25;-11.10;99.90
16158;DHT22;8184;60.256;18.694;2022-12-15T09:36:53;-11.10;99.90
16158;DHT22;8184;60.256;18.694;2022-12-15T09:39:22;-11.00;99.90
16158;DHT22;8184;60.256;18.694;2022-12-15T09:41:51;-11.10;99.90
16158;DHT22;8184;60.256;18.694;2022-12-15T09:44:21;-11.10;99.90
16158;DHT22;8184;60.256;18.694;2022-12-15T09:46:56;-11.00;99.90
16158;DHT22;8184;60.256;18.694;2022-12-15T09:49:40;-11.00;99.90
16158;DHT22;8184;60.256;18.694;2022-12-15T09:52:11;-11.00;99.90
16158;DHT22;8184;60.256;18.694;2022-12-15T09:54:39;-10.90;99.90
16158;DHT22;8184;60.256;18.694;2022-12-15T09:57:11;-10.90;99.90
16158;DHT22;8184;60.256;18.694;2022-12-15T09:59:48;-10.90;99.90
16158;DHT22;8184;60.256;18.694;2022-12-15T10:02:26;-10.80;99.90
16158;DHT22;8184;60.256;18.694;2022-12-15T10:05:00;-10.80;99.90
16158;DHT22;8184;60.256;18.694;2022-12-15T10:07:32;-10.70;99.90
16158;DHT22;8184;60.256;18.694;2022-12-15T10:10:08;-10.60;99.90
16158;DHT22;8184;60.256;18.694;2022-12-15T10:12:36;-10.60;99.90
16158;DHT22;8184;60.256;18.694;2022-12-15T10:15:23;-10.60;99.90
16158;DHT22;8184;60.256;18.694;2022-12-15T10:17:54;-10.50;99.90
16158;DHT22;8184;60.256;18.694;2022-12-15T10:20:26;-10.40;99.90
16158;DHT22;8184;60.256;18.694;2022-12-15T10:22:55;-10.40;99.90
16158;DHT22;8184;60.256;18.694;2022-12-15T10:25:24;-10.30;99.90
16158;DHT22;8184;60.256;18.694;2022-12-15T10:28:00;-10.30;99.90
16158;DHT22;8184;60.256;18.694;2022-12-15T10:30:34;-10.30;99.90
16158;DHT22;8184;60.256;18.694;2022-12-15T10:33:02;-10.20;99.90
16158;DHT22;8184;60.256;18.694;2022-12-15T10:35:36;-10.20;99.90
16158;DHT22;8184;60.256;18.694;2022-12-15T10:38:20;-10.20;99.90
16158;DHT22;8184;60.256;18.694;2022-12-15T10:40:50;-10.20;99.90
16158;DHT22;8184;60.256;18.694;2022-12-15T10:43:23;-10.20;99.90
16158;DHT22;8184;60.256;18.694;2022-12-15T10:46:00;-10.20;99.90
16158;DHT22;8184;60.256;18.694;2022-12-15T10:48:29;-10.20;99.90
16158;DHT22;8184;60.256;18.694;2022-12-15T10:53:44;-10.20;99.90
16158;DHT22;8184;60.256;18.694;2022-12-15T10:56:18;-10.20;99.90
16158;DHT22;8184;60.256;18.694;2022-12-15T10:58:47;-10.20;99.90
16158;DHT22;8184;60.256;18.694;2022-12-15T11:01:18;-10.20;99.90
16158;DHT22;8184;60.256;18.694;2022-12-15T11:03:47;-10.20;99.90
16158;DHT22;8184;60.256;18.694;2022-12-15T11:06:19;-10.20;99.90
16158;DHT22;8184;60.256;18.694;2022-12-15T11:08:48;-10.30;99.90
16158;DHT22;8184;60.256;18.694;2022-12-15T11:11:23;-10.20;99.90
16158;DHT22;8184;60.256;18.694;2022-12-15T11:14:11;-10.30;99.90
16158;DHT22;8184;60.256;18.694;2022-12-15T11:16:52;-10.20;99.90
16158;DHT22;8184;60.256;18.694;2022-12-15T11:19:30;-10.30;99.90
16158;DHT22;8184;60.256;18.694;2022-12-15T11:22:02;-10.40;99.90
16158;DHT22;8184;60.256;18.694;2022-12-15T11:24:37;-10.40;99.90
16158;DHT22;8184;60.256;18.694;2022-12-15T11:27:10;-10.40;99.90
16158;DHT22;8184;60.256;18.694;2022-12-15T11:29:43;-10.40;99.90
16158;DHT22;8184;60.256;18.694;2022-12-15T11:32:17;-10.40;99.90
16158;DHT22;8184;60.256;18.694;2022-12-15T11:34:48;-10.30;99.90
16158;DHT22;8184;60.256;18.694;2022-12-15T11:37:26;-10.30;99.90
16158;DHT22;8184;60.256;18.694;2022-12-15T11:42:58;-10.30;99.90
16158;DHT22;8184;60.256;18.694;2022-12-15T11:45:30;-10.40;99.90
16158;DHT22;8184;60.256;18.694;2022-12-15T11:48:04;-10.30;99.90
16158;DHT22;8184;60.256;18.694;2022-12-15T11:50:38;-10.30;99.90
16158;DHT22;8184;60.256;18.694;2022-12-15T11:53:16;-10.30;99.90
16158;DHT22;8184;60.256;18.694;2022-12-15T11:55:50;-10.20;99.90
16158;DHT22;8184;60.256;18.694;2022-12-15T12:01:16;-10.40;99.90
16158;DHT22;8184;60.256;18.694;2022-12-15T12:03:53;-10.30;99.90
16158;DHT22;8184;60.256;18.694;2022-12-15T12:06:30;-10.50;99.90
16158;DHT22;8184;60.256;18.694;2022-12-15T12:09:14;-10.60;99.90
16158;DHT22;8184;60.256;18.694;2022-12-15T12:11:46;-10.70;99.90
16158;DHT22;8184;60.256;18.694;2022-12-15T12:14:19;-10.60;99.90
16158;DHT22;8184;60.256;18.694;2022-12-15T12:16:53;-10.70;99.90
16158;DHT22;8184;60.256;18.694;2022-12-15T12:19:26;-10.70;99.90
16158;DHT22;8184;60.256;18.694;2022-12-15T12:21:58;-10.80;99.90
16158;DHT22;8184;60.256;18.694;2022-12-15T12:24:29;-11.00;99.90
16158;DHT22;8184;60.256;18.694;2022-12-15T12:26:57;-10.90;99.90
16158;DHT22;8184;60.256;18.694;2022-12-15T12:29:28;-11.00;99.90
16158;DHT22;8184;60.256;18.694;2022-12-15T12:32:00;-11.00;99.90
16158;DHT22;8184;60.256;18.694;2022-12-15T12:34:34;-10.80;99.90
16158;DHT22;8184;60.256;18.694;2022-12-15T12:37:11;-10.70;99.90
16158;DHT22;8184;60.256;18.694;2022-12-15T12:39:42;-10.80;99.90
16158;DHT22;8184;60.256;18.694;2022-12-15T12:42:13;-10.80;99.90
16158;DHT22;8184;60.256;18.694;2022-12-15T12:44:42;-10.70;99.90
16158;DHT22;8184;60.256;18.694;2022-12-15T12:47:15;-10.80;99.90
16158;DHT22;8184;60.256;18.694;2022-12-15T12:49:50;-10.70;99.90
16158;DHT22;8184;60.256;18.694;2022-12-15T12:52:20;-10.70;99.90
16158;DHT22;8184;60.256;18.694;2022-12-15T12:54:55;-10.70;99.90
16158;DHT22;8184;60.256;18.694;2022-12-15T13:00:14;-10.70;99.90
16158;DHT22;8184;60.256;18.694;2022-12-15T13:02:45;-10.70;99.90
16158;DHT22;8184;60.256;18.694;2022-12-15T13:11:44;-10.70;99.90
16158;DHT22;8184;60.256;18.694;2022-12-15T13:13:59;-10.70;99.90
16158;DHT22;8184;60.256;18.694;2022-12-15T13:16:28;-10.80;99.90
16158;DHT22;8184;60.256;18.694;2022-12-15T13:18:58;-10.70;99.90
16158;DHT22;8184;60.256;18.694;2022-12-15T13:24:17;-10.70;99.90
16158;DHT22;8184;60.256;18.694;2022-12-15T13:26:48;-10.70;99.90
16158;DHT22;8184;60.256;18.694;2022-12-15T13:29:19;-10.80;99.90
16158;DHT22;8184;60.256;18.694;2022-12-15T13:31:48;-10.80;99.90
16158;DHT22;8184;60.256;18.694;2022-12-15T13:34:25;-10.80;99.90
16158;DHT22;8184;60.256;18.694;2022-12-15T13:36:55;-10.90;99.90
16158;DHT22;8184;60.256;18.694;2022-12-15T13:42:30;-11.00;99.90
16158;DHT22;8184;60.256;18.694;2022-12-15T13:47:51;-11.10;99.90
16158;DHT22;8184;60.256;18.694;2022-12-15T13:50:34;-11.20;99.90
16158;DHT22;8184;60.256;18.694;2022-12-15T13:53:05;-11.20;99.90
16158;DHT22;8184;60.256;18.694;2022-12-15T13:56:05;-11.20;99.90
16158;DHT22;8184;60.256;18.694;2022-12-15T13:58:43;-11.20;99.90
16158;DHT22;8184;60.256;18.694;2022-12-15T14:01:18;-11.20;99.90
16158;DHT22;8184;60.256;18.694;2022-12-15T14:04:01;-11.20;99.90
16158;DHT22;8184;60.256;18.694;2022-12-15T14:06:35;-11.30;99.90
16158;DHT22;8184;60.256;18.694;2022-12-15T14:09:03;-11.30;99.90
16158;DHT22;8184;60.256;18.694;2022-12-15T14:11:33;-11.30;99.90
16158;DHT22;8184;60.256;18.694;2022-12-15T14:14:20;-11.40;99.90
16158;DHT22;8184;60.256;18.694;2022-12-15T14:16:54;-11.40;99.90
16158;DHT22;8184;60.256;18.694;2022-12-15T14:19:24;-11.40;99.90
16158;DHT22;8184;60.256;18.694;2022-12-15T14:21:53;-11.40;99.90
16158;DHT22;8184;60.256;18.694;2022-12-15T14:24:22;-11.40;99.90
16158;DHT22;8184;60.256;18.694;2022-12-15T14:27:07;-11.50;99.90
16158;DHT22;8184;60.256;18.694;2022-12-15T14:29:37;-11.50;99.90
16158;DHT22;8184;60.256;18.694;2022-12-15T14:32:06;-11.40;99.90
16158;DHT22;8184;60.256;18.694;2022-12-15T14:34:36;-11.30;99.90
16158;DHT22;8184;60.256;18.694;2022-12-15T14:37:05;-11.20;99.90
16158;DHT22;8184;60.256;18.694;2022-12-15T14:39:34;-11.10;99.90
16158;DHT22;8184;60.256;18.694;2022-12-15T14:42:04;-11.00;99.90
16158;DHT22;8184;60.256;18.694;2022-12-15T14:44:34;-10.90;99.90
16158;DHT22;8184;60.256;18.694;2022-12-15T14:47:26;-10.90;99.90
16158;DHT22;8184;60.256;18.694;2022-12-15T14:49:56;-10.80;99.90
16158;DHT22;8184;60.256;18.694;2022-12-15T14:52:25;-10.80;99.90
16158;DHT22;8184;60.256;18.694;2022-12-15T14:54:56;-10.80;99.90
16158;DHT22;8184;60.256;18.694;2022-12-15T14:57:25;-10.80;99.90
16158;DHT22;8184;60.256;18.694;2022-12-15T14:59:54;-10.70;99.90
16158;DHT22;8184;60.256;18.694;2022-12-15T15:02:23;-10.70;99.90
16158;DHT22;8184;60.256;18.694;2022-12-15T15:04:55;-10.60;99.90
16158;DHT22;8184;60.256;18.694;2022-12-15T15:07:25;-10.60;99.90
16158;DHT22;8184;60.256;18.694;2022-12-15T15:09:54;-10.50;99.90
16158;DHT22;8184;60.256;18.694;2022-12-15T15:12:23;-10.50;99.90
16158;DHT22;8184;60.256;18.694;2022-12-15T15:14:52;-10.50;99.90
16158;DHT22;8184;60.256;18.694;2022-12-15T15:17:24;-10.50;99.90
16158;DHT22;8184;60.256;18.694;2022-12-15T15:19:55;-10.50;99.90
16158;DHT22;8184;60.256;18.694;2022-12-15T15:22:29;-10.50;99.90
16158;DHT22;8184;60.256;18.694;2022-12-15T15:24:59;-10.50;99.90
16158;DHT22;8184;60.256;18.694;2022-12-15T15:27:36;-10.50;99.90
16158;DHT22;8184;60.256;18.694;2022-12-15T15:30:08;-10.50;99.90
16158;DHT22;8184;60.256;18.694;2022-12-15T15:32:47;-10.50;99.90
16158;DHT22;8184;60.256;18.694;2022-12-15T15:35:17;-10.60;99.90
16158;DHT22;8184;60.256;18.694;2022-12-15T15:37:46;-10.50;99.90
16158;DHT22;8184;60.256;18.694;2022-12-15T15:40:14;-10.60;99.90
16158;DHT22;8184;60.256;18.694;2022-12-15T15:42:44;-10.60;99.90
16158;DHT22;8184;60.256;18.694;2022-12-15T15:45:12;-10.60;99.90
16158;DHT22;8184;60.256;18.694;2022-12-15T15:47:41;-10.60;99.90
16158;DHT22;8184;60.256;18.694;2022-12-15T15:50:16;-10.60;99.90
16158;DHT22;8184;60.256;18.694;2022-12-15T15:52:46;-10.60;99.90
16158;DHT22;8184;60.256;18.694;2022-12-15T15:55:15;-10.60;99.90
16158;DHT22;8184;60.256;18.694;2022-12-15T15:57:46;-10.60;99.90
16158;DHT22;8184;60.256;18.694;2022-12-15T16:00:15;-10.50;99.90
16158;DHT22;8184;60.256;18.694;2022-12-15T16:02:44;-10.50;99.90
16158;DHT22;8184;60.256;18.694;2022-12-15T16:05:13;-10.50;99.90
16158;DHT22;8184;60.256;18.694;2022-12-15T16:07:42;-10.50;99.90
16158;DHT22;8184;60.256;18.694;2022-12-15T16:10:15;-10.60;99.90
16158;DHT22;8184;60.256;18.694;2022-12-15T16:12:44;-10.50;99.90
16158;DHT22;8184;60.256;18.694;2022-12-15T16:15:14;-10.50;99.90
16158;DHT22;8184;60.256;18.694;2022-12-15T16:17:43;-10.50;99.90
16158;DHT22;8184;60.256;18.694;2022-12-15T16:20:12;-10.40;99.90
16158;DHT22;8184;60.256;18.694;2022-12-15T16:22:41;-10.40;99.90
16158;DHT22;8184;60.256;18.694;2022-12-15T16:25:12;-10.40;99.90
16158;DHT22;8184;60.256;18.694;2022-12-15T16:27:42;-10.40;99.90